createdAt,value
2023-11-08T00:02:07.308Z,94.10
2023-11-08T00:04:34.976Z,95.02
2023-11-08T00:07:04.417Z,94.80
2023-11-08T00:09:32.255Z,91.85
2023-11-08T00:12:00.213Z,90.63
2023-11-08T00:14:27.914Z,92.62
2023-11-08T00:16:57.055Z,93.26
2023-11-08T00:19:26.421Z,93.62
2023-11-08T00:21:54.113Z,93.37
2023-11-08T00:24:23.133Z,94.67
2023-11-08T00:26:50.957Z,94.36
2023-11-08T00:29:18.792Z,93.67
2023-11-08T00:31:46.482Z,94.27
2023-11-08T00:34:15.758Z,94.80
2023-11-08T00:36:45.271Z,95.46
2023-11-08T00:39:16.652Z,94.61
2023-11-08T00:41:44.619Z,93.95
2023-11-08T00:44:14.343Z,93.68
2023-11-08T00:46:42.567Z,94.41
2023-11-08T00:49:10.819Z,94.03
2023-11-08T00:51:38.526Z,94.10
2023-11-08T00:54:08.001Z,93.73
2023-11-08T00:56:35.699Z,94.53
2023-11-08T00:59:03.969Z,93.37
2023-11-08T01:01:35.980Z,93.95
2023-11-08T01:04:05.019Z,93.77
2023-11-08T01:06:33.129Z,94.91
2023-11-08T01:09:00.966Z,94.27
2023-11-08T01:11:30.869Z,93.41
2023-11-08T01:13:58.588Z,94.40
2023-11-08T01:16:26.275Z,93.73
2023-11-08T01:18:55.698Z,94.24
2023-11-08T01:21:24.004Z,94.63
2023-11-08T01:23:52.656Z,94.25
2023-11-08T01:26:21.684Z,93.76
2023-11-08T01:28:50.832Z,93.42
2023-11-08T01:31:18.539Z,94.07
2023-11-08T01:33:46.311Z,94.95
2023-11-08T01:36:14.135Z,94.97
2023-11-08T01:38:41.992Z,95.46
2023-11-08T01:41:09.799Z,93.91
2023-11-08T01:43:39.206Z,94.60
2023-11-08T01:46:13.214Z,94.33
2023-11-08T01:48:43.173Z,94.35
2023-11-08T01:51:11.976Z,95.31
2023-11-08T01:53:42.341Z,94.27
2023-11-08T01:56:11.910Z,94.75
2023-11-08T01:58:40.579Z,94.46
2023-11-08T02:01:11.572Z,95.27
2023-11-08T02:03:40.815Z,94.93
2023-11-08T02:06:12.180Z,94.83
2023-11-08T02:08:40.466Z,94.34
2023-11-08T02:11:08.911Z,94.30
2023-11-08T02:13:36.816Z,95.07
2023-11-08T02:16:05.140Z,95.32
2023-11-08T02:18:34.335Z,94.42
2023-11-08T02:21:03.066Z,93.83
2023-11-08T02:23:32.857Z,92.94
2023-11-08T02:26:02.110Z,93.02
2023-11-08T02:28:29.885Z,94.19
2023-11-08T02:30:57.851Z,92.58
2023-11-08T02:33:26.607Z,93.78
2023-11-08T02:35:54.738Z,93.82
2023-11-08T02:38:22.665Z,94.44
2023-11-08T02:40:50.426Z,93.73
2023-11-08T02:43:19.460Z,93.38
2023-11-08T02:45:47.960Z,93.94
2023-11-08T02:48:16.032Z,93.84
2023-11-08T02:50:43.781Z,94.23
2023-11-08T02:53:11.462Z,92.68
2023-11-08T02:55:39.267Z,92.65
2023-11-08T02:58:06.987Z,94.02
2023-11-08T03:00:36.253Z,93.72
2023-11-08T03:03:04.258Z,93.49
2023-11-08T03:05:34.434Z,92.60
2023-11-08T03:08:02.469Z,92.89
2023-11-08T03:10:30.856Z,92.98
2023-11-08T03:12:58.614Z,93.50
2023-11-08T03:15:26.353Z,94.75
2023-11-08T03:17:55.478Z,95.39
2023-11-08T03:20:25.048Z,95.92
2023-11-08T03:22:52.785Z,95.67
2023-11-08T03:25:20.572Z,95.41
2023-11-08T03:27:48.784Z,95.64
2023-11-08T03:30:18.290Z,96.00
2023-11-08T03:32:47.152Z,96.21
2023-11-08T03:35:16.912Z,96.03
2023-11-08T03:37:45.392Z,95.55
2023-11-08T03:40:14.432Z,95.56
2023-11-08T03:42:42.699Z,95.86
2023-11-08T03:45:11.420Z,95.69
2023-11-08T03:47:40.275Z,96.00
2023-11-08T03:50:08.949Z,95.99
2023-11-08T03:52:38.125Z,96.25
2023-11-08T03:55:07.252Z,96.26
2023-11-08T03:57:34.975Z,96.37
2023-11-08T04:00:02.709Z,95.86
2023-11-08T04:02:30.424Z,95.67
2023-11-08T04:04:59.113Z,95.41
2023-11-08T04:07:27.698Z,95.96
2023-11-08T04:09:56.739Z,95.65
2023-11-08T04:12:24.542Z,95.67
2023-11-08T04:14:52.240Z,96.12
2023-11-08T04:17:20.969Z,96.26
2023-11-08T04:19:48.683Z,95.59
2023-11-08T04:22:17.015Z,96.22
2023-11-08T04:24:44.765Z,95.63
2023-11-08T04:27:14.027Z,96.04
2023-11-08T04:29:43.066Z,96.39
2023-11-08T04:32:10.822Z,96.82
2023-11-08T04:34:38.593Z,96.50
2023-11-08T04:37:09.750Z,96.31
2023-11-08T04:39:38.533Z,96.79
2023-11-08T04:42:06.790Z,97.11
2023-11-08T04:44:36.031Z,96.05
2023-11-08T04:47:03.870Z,96.33
2023-11-08T04:49:31.640Z,96.19
2023-11-08T04:51:59.408Z,96.56
2023-11-08T04:54:29.922Z,96.73
2023-11-08T04:56:59.842Z,96.82
2023-11-08T04:59:27.584Z,97.37
2023-11-08T05:01:56.635Z,97.57
2023-11-08T05:04:24.330Z,97.59
2023-11-08T05:06:52.089Z,97.43
2023-11-08T05:09:20.806Z,97.76
2023-11-08T05:11:48.518Z,97.59
2023-11-08T05:14:16.388Z,97.90
2023-11-08T05:16:45.000Z,98.16
2023-11-08T05:19:14.678Z,97.75
2023-11-08T05:21:42.441Z,97.75
2023-11-08T05:24:10.392Z,97.17
2023-11-08T05:26:38.085Z,97.91
2023-11-08T05:29:06.006Z,97.69
2023-11-08T05:31:35.243Z,97.94
2023-11-08T05:34:04.090Z,97.84
2023-11-08T05:36:33.325Z,97.71
2023-11-08T05:39:01.001Z,97.71
2023-11-08T05:41:28.750Z,97.93
2023-11-08T05:43:59.099Z,98.00
2023-11-08T05:46:27.021Z,97.72
2023-11-08T05:48:56.212Z,97.88
2023-11-08T05:51:24.836Z,98.44
2023-11-08T05:53:54.122Z,97.63
2023-11-08T05:56:21.845Z,98.17
2023-11-08T05:58:49.528Z,98.27
2023-11-08T06:01:17.368Z,97.35
2023-11-08T06:03:45.110Z,98.43
2023-11-08T06:06:12.823Z,98.15
2023-11-08T06:08:41.106Z,97.35
2023-11-08T06:11:10.088Z,98.13
2023-11-08T06:13:38.673Z,98.13
2023-11-08T06:16:07.261Z,98.04
2023-11-08T06:18:35.162Z,98.13
2023-11-08T06:21:03.679Z,98.01
2023-11-08T06:23:31.950Z,97.93
2023-11-08T06:25:59.628Z,97.11
2023-11-08T06:28:28.659Z,97.67
2023-11-08T06:30:56.367Z,97.75
2023-11-08T06:33:24.106Z,98.02
2023-11-08T06:35:52.035Z,98.29
2023-11-08T06:38:19.778Z,98.22
2023-11-08T06:40:47.456Z,98.83
2023-11-08T06:43:15.799Z,97.77
2023-11-08T06:45:45.253Z,98.00
2023-11-08T06:48:13.415Z,97.92
2023-11-08T06:50:41.081Z,98.28
2023-11-08T06:53:09.420Z,97.69
2023-11-08T06:55:39.394Z,97.49
2023-11-08T06:58:09.012Z,97.96
2023-11-08T07:00:37.022Z,98.16
2023-11-08T07:03:06.969Z,97.28
2023-11-08T07:05:38.513Z,97.66
2023-11-08T07:08:08.915Z,97.35
2023-11-08T07:10:36.895Z,97.67
2023-11-08T07:13:05.483Z,97.24
2023-11-08T07:15:33.246Z,97.33
2023-11-08T07:18:01.310Z,97.18
2023-11-08T07:20:30.504Z,96.71
2023-11-08T07:22:58.351Z,97.47
2023-11-08T07:25:26.115Z,96.72
2023-11-08T07:27:54.042Z,96.67
2023-11-08T07:30:21.870Z,96.50
2023-11-08T07:32:49.720Z,97.04
2023-11-08T07:35:17.500Z,96.99
2023-11-08T07:37:46.585Z,97.16
2023-11-08T07:40:14.492Z,96.25
2023-11-08T07:42:42.993Z,96.04
2023-11-08T07:45:12.473Z,95.84
2023-11-08T07:47:40.410Z,95.92
2023-11-08T07:50:09.949Z,95.38
2023-11-08T07:52:37.769Z,95.74
2023-11-08T07:55:12.748Z,95.98
2023-11-08T07:57:41.942Z,95.18
2023-11-08T08:00:15.217Z,94.87
2023-11-08T08:02:44.823Z,94.41
2023-11-08T08:05:13.754Z,94.25
2023-11-08T08:07:42.430Z,93.07
2023-11-08T08:10:13.520Z,93.66
2023-11-08T08:12:47.555Z,94.10
2023-11-08T08:15:17.757Z,93.51
2023-11-08T08:17:46.497Z,93.01
2023-11-08T08:20:14.555Z,93.69
2023-11-08T08:22:42.289Z,93.52
2023-11-08T08:25:13.030Z,94.64
2023-11-08T08:27:41.603Z,93.46
2023-11-08T08:30:12.286Z,93.82
2023-11-08T08:32:40.153Z,93.06
2023-11-08T08:35:09.439Z,91.99
2023-11-08T08:37:37.234Z,92.34
2023-11-08T08:40:11.641Z,92.48
2023-11-08T08:42:42.294Z,92.90
2023-11-08T08:45:10.842Z,92.38
2023-11-08T08:47:44.607Z,92.25
2023-11-08T08:50:14.467Z,92.66
2023-11-08T08:52:43.143Z,93.10
2023-11-08T08:55:11.972Z,92.46
2023-11-08T08:57:44.532Z,92.40
2023-11-08T09:00:13.726Z,92.26
2023-11-08T09:02:43.045Z,91.74
2023-11-08T09:05:11.740Z,92.29
2023-11-08T09:07:40.009Z,92.32
2023-11-08T09:10:10.158Z,91.59
2023-11-08T09:12:37.932Z,92.70
2023-11-08T09:15:09.175Z,91.66
2023-11-08T09:17:37.137Z,92.23
2023-11-08T09:20:08.662Z,92.15
2023-11-08T09:22:36.663Z,91.99
2023-11-08T09:25:06.841Z,92.25
2023-11-08T09:27:34.659Z,92.64
2023-11-08T09:30:02.629Z,92.03
2023-11-08T09:32:31.853Z,91.79
2023-11-08T09:34:59.825Z,92.41
2023-11-08T09:37:27.580Z,92.80
2023-11-08T09:39:57.442Z,92.25
2023-11-08T09:42:27.964Z,90.99
2023-11-08T09:44:59.499Z,92.21
2023-11-08T09:47:28.038Z,91.82
2023-11-08T09:50:01.935Z,92.60
2023-11-08T09:52:29.855Z,92.43
2023-11-08T09:54:57.949Z,92.24
2023-11-08T09:57:27.592Z,91.94
2023-11-08T09:59:56.936Z,92.63
2023-11-08T10:02:24.970Z,92.99
2023-11-08T10:04:53.346Z,92.64
2023-11-08T10:07:22.778Z,92.56
2023-11-08T10:09:50.637Z,92.25
2023-11-08T10:12:22.102Z,91.81
2023-11-08T10:14:59.235Z,92.46
2023-11-08T10:19:29.812Z,92.28
2023-11-08T10:20:31.005Z,92.47
2023-11-08T10:23:00.438Z,91.65
2023-11-08T10:25:30.565Z,91.34
2023-11-08T10:28:04.788Z,91.43
2023-11-08T10:30:37.645Z,91.09
2023-11-08T10:33:09.703Z,91.90
2023-11-08T10:35:46.831Z,91.46
2023-11-08T10:38:22.308Z,91.37
2023-11-08T10:40:52.651Z,91.44
2023-11-08T10:43:25.272Z,92.22
2023-11-08T10:45:53.130Z,92.13
2023-11-08T10:48:25.377Z,91.85
2023-11-08T10:50:54.403Z,90.99
2023-11-08T10:53:26.263Z,91.19
2023-11-08T10:55:59.474Z,90.73
2023-11-08T10:58:34.758Z,90.73
2023-11-08T11:01:04.501Z,90.69
2023-11-08T11:03:34.255Z,90.96
2023-11-08T11:06:04.048Z,91.16
2023-11-08T11:08:36.118Z,90.94
2023-11-08T11:11:05.354Z,90.78
2023-11-08T11:13:39.503Z,90.52
2023-11-08T11:16:23.346Z,89.75
2023-11-08T11:19:02.352Z,90.16
2023-11-08T11:21:40.598Z,88.79
2023-11-08T11:24:41.406Z,89.25
2023-11-08T11:27:11.644Z,88.95
2023-11-08T11:29:40.611Z,89.39
2023-11-08T11:32:36.778Z,86.67
2023-11-08T11:35:05.815Z,87.72
2023-11-08T11:37:33.588Z,86.98
2023-11-08T11:40:19.738Z,86.26
2023-11-08T11:42:48.058Z,86.47
2023-11-08T11:45:19.029Z,86.83
2023-11-08T11:47:52.582Z,86.99
2023-11-08T11:50:21.228Z,86.12
2023-11-08T11:52:50.706Z,86.90
2023-11-08T11:55:21.655Z,86.16
2023-11-08T11:57:49.488Z,87.30
2023-11-08T12:00:18.320Z,87.63
2023-11-08T12:02:46.235Z,87.30
2023-11-08T12:05:14.466Z,87.74
2023-11-08T12:07:42.559Z,87.45
2023-11-08T12:10:13.548Z,87.03
2023-11-08T12:12:45.789Z,87.71
2023-11-08T12:15:14.679Z,87.08
2023-11-08T12:17:42.575Z,88.74
2023-11-08T12:20:13.122Z,88.62
2023-11-08T12:22:48.199Z,87.83
2023-11-08T12:25:16.012Z,88.58
2023-11-08T12:27:45.129Z,88.69
2023-11-08T12:30:13.641Z,88.79
2023-11-08T12:32:41.609Z,89.01
2023-11-08T12:35:10.805Z,89.63
2023-11-08T12:37:38.754Z,88.93
2023-11-08T12:40:19.973Z,89.65
2023-11-08T12:42:49.265Z,89.53
2023-11-08T12:46:33.967Z,90.08
2023-11-08T12:48:19.850Z,90.74
2023-11-08T12:50:51.937Z,89.97
2023-11-08T12:53:19.734Z,90.84
2023-11-08T12:55:48.149Z,90.70
2023-11-08T12:58:24.801Z,91.32
2023-11-08T13:00:52.820Z,91.77
2023-11-08T13:03:22.206Z,90.78
2023-11-08T13:05:51.077Z,91.73
2023-11-08T13:08:19.508Z,91.78
2023-11-08T13:10:47.499Z,91.43
2023-11-08T13:13:15.411Z,90.83
2023-11-08T13:15:44.667Z,92.40
2023-11-08T13:18:13.552Z,92.52
2023-11-08T13:20:41.326Z,91.69
2023-11-08T13:23:19.592Z,91.32
2023-11-08T13:25:57.032Z,92.19
2023-11-08T13:28:25.205Z,93.06
2023-11-08T13:30:54.241Z,92.42
2023-11-08T13:33:24.265Z,92.89
2023-11-08T13:35:53.654Z,92.63
2023-11-08T13:38:21.378Z,92.16
2023-11-08T13:40:51.082Z,91.79
2023-11-08T13:43:18.841Z,93.16
2023-11-08T13:45:46.615Z,92.87
2023-11-08T13:48:16.113Z,92.66
2023-11-08T13:50:44.347Z,92.90
2023-11-08T13:53:12.081Z,93.56
2023-11-08T13:55:39.885Z,93.01
2023-11-08T13:58:17.208Z,93.82
2023-11-08T14:00:53.113Z,93.93
2023-11-08T14:03:22.558Z,94.52
2023-11-08T14:05:50.375Z,95.39
2023-11-08T14:08:18.194Z,94.34
2023-11-08T14:10:45.930Z,94.79
2023-11-08T14:13:13.752Z,95.60
2023-11-08T14:15:41.573Z,95.63
2023-11-08T14:18:10.712Z,95.39
2023-11-08T14:20:40.006Z,95.59
2023-11-08T14:23:07.892Z,96.34
2023-11-08T14:25:36.419Z,97.25
2023-11-08T14:28:04.171Z,97.08
2023-11-08T14:30:32.918Z,96.31
2023-11-08T14:33:00.788Z,96.53
2023-11-08T14:35:28.690Z,96.21
2023-11-08T14:37:58.872Z,97.16
2023-11-08T14:40:27.640Z,96.40
2023-11-08T14:42:55.522Z,96.90
2023-11-08T14:45:23.672Z,96.79
2023-11-08T14:47:52.299Z,96.49
2023-11-08T14:50:22.108Z,96.62
2023-11-08T14:52:51.055Z,96.57
2023-11-08T14:55:20.618Z,97.15
2023-11-08T14:57:48.378Z,96.58
2023-11-08T15:00:16.923Z,97.66
2023-11-08T15:02:45.051Z,96.41
2023-11-08T15:05:31.150Z,97.49
2023-11-08T15:09:47.913Z,97.04
2023-11-08T15:10:48.297Z,97.16
2023-11-08T15:13:16.905Z,97.65
2023-11-08T15:15:44.911Z,97.90
2023-11-08T15:18:12.614Z,97.78
2023-11-08T15:20:40.366Z,97.23
2023-11-08T15:23:08.179Z,98.13
2023-11-08T15:25:40.703Z,97.82
2023-11-08T15:28:10.321Z,97.67
2023-11-08T15:30:38.203Z,97.56
2023-11-08T15:33:06.182Z,97.68
2023-11-08T15:35:33.953Z,97.76
2023-11-08T15:38:01.724Z,97.28
2023-11-08T15:40:29.535Z,98.17
2023-11-08T15:42:58.082Z,97.44
2023-11-08T15:45:28.049Z,97.28
2023-11-08T15:47:55.790Z,96.92
2023-11-08T15:50:23.534Z,97.24
2023-11-08T15:52:51.269Z,97.77
2023-11-08T15:55:21.949Z,98.11
2023-11-08T15:57:50.711Z,97.79
2023-11-08T16:00:19.901Z,98.16
2023-11-08T16:02:49.062Z,98.99
2023-11-08T16:05:16.915Z,98.23
2023-11-08T16:07:44.875Z,97.98
2023-11-08T16:10:12.813Z,98.68
2023-11-08T16:12:40.593Z,97.99
2023-11-08T16:15:09.209Z,98.03
2023-11-08T16:17:37.001Z,97.91
2023-11-08T16:20:08.597Z,98.37
2023-11-08T16:22:36.441Z,98.56
2023-11-08T16:25:04.565Z,98.85
2023-11-08T16:27:32.317Z,97.71
2023-11-08T16:30:00.049Z,99.01
2023-11-08T16:32:38.225Z,98.48
2023-11-08T16:35:13.075Z,97.98
2023-11-08T16:37:41.563Z,98.90
2023-11-08T16:40:11.436Z,98.65
2023-11-08T16:42:39.440Z,98.57
2023-11-08T16:45:08.486Z,97.84
2023-11-08T16:47:36.631Z,98.04
2023-11-08T16:50:04.603Z,98.83
2023-11-08T16:52:33.659Z,98.19
2023-11-08T16:55:01.448Z,98.18
2023-11-08T16:57:29.201Z,98.35
2023-11-08T16:59:56.821Z,98.55
2023-11-08T17:02:24.979Z,98.67
2023-11-08T17:04:53.123Z,99.19
2023-11-08T17:07:20.983Z,98.35
2023-11-08T17:09:50.176Z,98.59
2023-11-08T17:12:18.954Z,98.28
2023-11-08T17:14:48.289Z,97.93
2023-11-08T17:17:17.094Z,99.23
2023-11-08T17:19:44.992Z,98.05
2023-11-08T17:22:14.956Z,98.52
2023-11-08T17:24:43.620Z,98.78
2023-11-08T17:27:12.823Z,97.87
2023-11-08T17:29:42.057Z,97.65
2023-11-08T17:32:09.965Z,98.47
2023-11-08T17:34:37.843Z,97.97
2023-11-08T17:37:05.774Z,98.11
2023-11-08T17:39:33.744Z,98.15
2023-11-08T17:42:01.508Z,98.37
2023-11-08T17:44:30.792Z,97.80
2023-11-08T17:46:58.421Z,97.87
2023-11-08T17:49:27.328Z,98.76
2023-11-08T17:51:55.153Z,98.81
2023-11-08T17:54:22.982Z,98.03
2023-11-08T17:56:50.713Z,99.04
2023-11-08T17:59:18.517Z,98.68
2023-11-08T18:01:48.539Z,98.64
2023-11-08T18:04:16.311Z,98.89
2023-11-08T18:06:44.194Z,98.77
2023-11-08T18:09:13.786Z,98.81
2023-11-08T18:11:41.678Z,98.49
2023-11-08T18:14:09.371Z,97.75
2023-11-08T18:16:37.317Z,98.13
2023-11-08T18:19:08.830Z,98.04
2023-11-08T18:21:37.568Z,98.07
2023-11-08T18:24:05.716Z,97.84
2023-11-08T18:26:33.492Z,98.66
2023-11-08T18:29:01.230Z,98.33
2023-11-08T18:31:28.967Z,98.56
2023-11-08T18:33:56.695Z,98.57
2023-11-08T18:36:26.810Z,97.71
2023-11-08T18:38:55.206Z,97.32
2023-11-08T18:41:23.845Z,97.82
2023-11-08T18:43:54.581Z,97.75
2023-11-08T18:46:22.998Z,97.83
2023-11-08T18:48:50.952Z,98.01
2023-11-08T18:51:18.947Z,97.87
2023-11-08T18:53:48.103Z,97.28
2023-11-08T18:56:15.876Z,98.15
2023-11-08T18:58:43.573Z,97.75
2023-11-08T19:01:11.731Z,96.95
2023-11-08T19:03:39.811Z,97.56
2023-11-08T19:06:07.888Z,97.52
2023-11-08T19:08:35.582Z,97.91
2023-11-08T19:11:09.007Z,96.86
2023-11-08T19:13:38.547Z,97.38
2023-11-08T19:16:09.338Z,96.71
2023-11-08T19:18:39.476Z,96.92
2023-11-08T19:21:07.517Z,97.97
2023-11-08T19:23:35.520Z,97.62
2023-11-08T19:26:05.922Z,97.87
2023-11-08T19:28:33.612Z,97.22
2023-11-08T19:31:01.672Z,98.63
2023-11-08T19:33:30.972Z,98.13
2023-11-08T19:36:00.361Z,97.18
2023-11-08T19:38:28.706Z,98.02
2023-11-08T19:40:56.736Z,98.25
2023-11-08T19:43:26.634Z,97.76
2023-11-08T19:45:54.366Z,98.38
2023-11-08T19:48:22.199Z,97.70
2023-11-08T19:50:50.001Z,98.07
2023-11-08T19:53:17.842Z,98.76
2023-11-08T19:55:45.587Z,97.94
2023-11-08T19:58:13.787Z,97.90
2023-11-08T20:00:43.020Z,97.03
2023-11-08T20:03:11.016Z,97.34
2023-11-08T20:05:38.918Z,97.33
2023-11-08T20:08:06.785Z,97.13
2023-11-08T20:10:35.579Z,97.39
2023-11-08T20:13:03.279Z,97.27
2023-11-08T20:15:31.405Z,97.49
2023-11-08T20:18:00.511Z,97.48
2023-11-08T20:20:28.286Z,97.46
2023-11-08T20:22:56.641Z,97.34
2023-11-08T20:25:25.165Z,97.26
2023-11-08T20:27:52.981Z,98.04
2023-11-08T20:30:20.847Z,98.22
2023-11-08T20:32:49.420Z,98.25
2023-11-08T20:35:18.891Z,98.08
2023-11-08T20:37:46.665Z,98.47
2023-11-08T20:40:15.656Z,97.79
2023-11-08T20:42:43.884Z,97.95
2023-11-08T20:45:12.437Z,99.05
2023-11-08T20:47:40.289Z,97.83
2023-11-08T20:50:09.987Z,97.86
2023-11-08T20:52:42.137Z,97.90
2023-11-08T20:55:11.743Z,97.57
2023-11-08T20:57:39.799Z,97.70
2023-11-08T21:00:09.495Z,97.31
2023-11-08T21:02:37.396Z,98.82
2023-11-08T21:05:05.593Z,98.18
2023-11-08T21:07:33.453Z,98.20
2023-11-08T21:10:02.654Z,97.49
2023-11-08T21:12:30.482Z,97.95
2023-11-08T21:14:58.695Z,98.38
2023-11-08T21:17:26.423Z,98.58
2023-11-08T21:19:54.884Z,97.77
2023-11-08T21:22:23.707Z,98.16
2023-11-08T21:24:51.447Z,98.17
2023-11-08T21:27:20.593Z,98.86
2023-11-08T21:29:48.317Z,97.90
2023-11-08T21:32:16.065Z,98.01
2023-11-08T21:34:44.001Z,98.62
2023-11-08T21:37:12.818Z,97.55
2023-11-08T21:39:42.803Z,98.66
2023-11-08T21:42:10.568Z,98.41
2023-11-08T21:44:40.546Z,98.28
2023-11-08T21:47:08.277Z,98.07
2023-11-08T21:49:36.121Z,98.38
2023-11-08T21:52:05.806Z,98.37
2023-11-08T21:54:38.282Z,98.96
2023-11-08T21:57:08.729Z,97.96
2023-11-08T21:59:36.476Z,98.16
2023-11-08T22:02:07.938Z,98.79
2023-11-08T22:04:36.246Z,98.68
2023-11-08T22:07:04.481Z,98.32
2023-11-08T22:09:32.466Z,97.83
2023-11-08T22:12:00.326Z,98.66
2023-11-08T22:14:28.808Z,98.02
2023-11-08T22:16:56.593Z,98.40
2023-11-08T22:19:25.860Z,98.25
2023-11-08T22:21:53.631Z,98.06
2023-11-08T22:24:21.269Z,97.86
2023-11-08T22:26:49.364Z,98.50
2023-11-08T22:29:17.896Z,98.06
2023-11-08T22:31:45.614Z,98.33
2023-11-08T22:34:13.425Z,98.89
2023-11-08T22:36:42.930Z,98.12
2023-11-08T22:39:11.067Z,98.31
2023-11-08T22:41:39.074Z,99.00
2023-11-08T22:44:08.174Z,99.11
2023-11-08T22:46:35.859Z,98.90
2023-11-08T22:49:03.896Z,99.39
2023-11-08T22:51:34.216Z,98.28
2023-11-08T22:54:06.530Z,99.07
2023-11-08T22:56:34.384Z,98.82
2023-11-08T22:59:02.331Z,99.40
2023-11-08T23:01:33.576Z,99.22
2023-11-08T23:04:01.736Z,98.84
2023-11-08T23:06:30.238Z,98.85
2023-11-08T23:08:59.178Z,99.32
2023-11-08T23:11:28.324Z,99.07
2023-11-08T23:13:56.154Z,98.38
2023-11-08T23:16:24.728Z,99.04
2023-11-08T23:18:53.694Z,99.02
2023-11-08T23:21:21.964Z,99.69
2023-11-08T23:23:51.936Z,99.11
2023-11-08T23:26:19.871Z,98.81
2023-11-08T23:28:48.998Z,98.41
2023-11-08T23:31:19.192Z,98.93
2023-11-08T23:33:47.319Z,99.93
2023-11-08T23:36:15.178Z,98.66
2023-11-08T23:38:43.207Z,99.52
2023-11-08T23:41:11.264Z,99.60
2023-11-08T23:43:38.965Z,99.12
2023-11-08T23:46:08.084Z,99.82
2023-11-08T23:48:35.818Z,99.90
2023-11-08T23:51:03.621Z,100.00
2023-11-08T23:53:32.471Z,99.28
2023-11-08T23:56:02.283Z,98.59
2023-11-08T23:58:30.127Z,99.77
